createdAt,value
2023-06-30T00:00:29.266Z,69.42
2023-06-30T00:01:29.236Z,69.32
2023-06-30T00:02:29.284Z,69.23
2023-06-30T00:03:29.410Z,69.42
2023-06-30T00:04:29.271Z,69.42
2023-06-30T00:05:29.233Z,69.62
2023-06-30T00:06:29.232Z,69.56
2023-06-30T00:07:29.233Z,69.66
2023-06-30T00:08:29.154Z,69.56
2023-06-30T00:09:29.153Z,69.46
2023-06-30T00:10:29.133Z,69.66
2023-06-30T00:11:29.146Z,69.66
2023-06-30T00:12:29.115Z,69.66
2023-06-30T00:13:29.106Z,69.46
2023-06-30T00:14:29.099Z,69.56
2023-06-30T00:15:29.168Z,69.66
2023-06-30T00:16:29.204Z,69.46
2023-06-30T00:17:29.148Z,69.46
2023-06-30T00:18:29.052Z,69.76
2023-06-30T00:19:29.021Z,69.66
2023-06-30T00:20:29.028Z,69.79
2023-06-30T00:21:29.015Z,69.79
2023-06-30T00:22:29.020Z,69.59
2023-06-30T00:23:29.013Z,69.79
2023-06-30T00:24:29.032Z,69.79
2023-06-30T00:25:28.966Z,69.79
2023-06-30T00:26:29.012Z,69.79
2023-06-30T00:27:28.958Z,69.79
2023-06-30T00:28:28.952Z,69.79
2023-06-30T00:29:28.960Z,69.79
2023-06-30T00:30:28.928Z,69.69
2023-06-30T00:31:28.924Z,69.79
2023-06-30T00:32:28.932Z,69.69
2023-06-30T00:33:28.904Z,69.69
2023-06-30T00:34:28.880Z,69.79
2023-06-30T00:35:28.888Z,69.69
2023-06-30T00:36:28.885Z,69.69
2023-06-30T00:37:28.879Z,69.69
2023-06-30T00:38:28.911Z,69.59
2023-06-30T00:39:28.817Z,69.79
2023-06-30T00:40:28.824Z,69.89
2023-06-30T00:41:28.810Z,69.76
2023-06-30T00:42:28.799Z,69.76
2023-06-30T00:43:28.772Z,69.66
2023-06-30T00:44:28.878Z,69.76
2023-06-30T00:45:28.959Z,69.56
2023-06-30T00:46:29.009Z,69.66
2023-06-30T00:47:28.790Z,69.46
2023-06-30T00:48:28.730Z,69.46
2023-06-30T00:49:28.708Z,69.56
2023-06-30T00:50:28.710Z,69.56
2023-06-30T00:51:28.763Z,69.56
2023-06-30T00:52:28.701Z,69.66
2023-06-30T00:53:28.675Z,69.49
2023-06-30T00:54:28.725Z,69.69
2023-06-30T00:55:28.658Z,69.76
2023-06-30T00:56:28.701Z,69.69
2023-06-30T00:57:28.621Z,69.99
2023-06-30T00:58:28.613Z,69.89
2023-06-30T00:59:28.615Z,69.79
2023-06-30T01:00:28.620Z,69.86
2023-06-30T01:01:28.593Z,69.96
2023-06-30T01:02:28.688Z,70.09
2023-06-30T01:03:28.824Z,70.09
2023-06-30T01:04:28.667Z,70.09
2023-06-30T01:05:28.527Z,70.19
2023-06-30T01:06:28.556Z,70.19
2023-06-30T01:07:28.566Z,70.29
2023-06-30T01:08:28.530Z,70.29
2023-06-30T01:09:28.495Z,70.19
2023-06-30T01:10:28.494Z,70.29
2023-06-30T01:11:28.491Z,70.09
2023-06-30T01:12:28.497Z,70.39
2023-06-30T01:13:28.479Z,70.39
2023-06-30T01:14:28.443Z,70.86
2023-06-30T01:15:28.501Z,70.66
2023-06-30T01:16:28.493Z,70.39
2023-06-30T01:17:28.441Z,70.66
2023-06-30T01:18:28.414Z,71.06
2023-06-30T01:19:28.456Z,70.66
2023-06-30T01:20:28.431Z,71.06
2023-06-30T01:21:28.415Z,71.06
2023-06-30T01:22:28.380Z,70.96
2023-06-30T01:23:28.360Z,71.36
2023-06-30T01:24:28.350Z,71.36
2023-06-30T01:25:28.350Z,71.46
2023-06-30T01:26:28.412Z,71.36
2023-06-30T01:27:28.320Z,71.26
2023-06-30T01:28:28.320Z,71.36
2023-06-30T01:29:28.273Z,71.46
2023-06-30T06:01:00.678Z,93.74
2023-06-30T06:02:01.662Z,93.74
2023-06-30T06:03:01.743Z,92.65
2023-06-30T06:04:01.867Z,92.04
2023-06-30T06:05:01.827Z,93.15
2023-06-30T06:06:01.694Z,94.25
2023-06-30T06:07:03.348Z,93.35
2023-06-30T06:08:01.701Z,93.74
2023-06-30T06:09:01.565Z,92.44
2023-06-30T06:10:01.597Z,93.04
2023-06-30T06:11:01.542Z,91.34
2023-06-30T06:12:01.538Z,92.84
2023-06-30T06:13:01.552Z,92.00
2023-06-30T06:14:01.514Z,91.30
2023-06-30T06:15:01.501Z,92.60
2023-06-30T06:16:01.534Z,92.60
2023-06-30T06:17:01.591Z,93.00
2023-06-30T06:18:01.535Z,93.40
2023-06-30T06:19:01.493Z,93.70
2023-06-30T06:20:01.455Z,92.30
2023-06-30T06:21:01.433Z,92.50
2023-06-30T06:22:01.436Z,93.55
2023-06-30T06:23:01.403Z,91.96
2023-06-30T06:24:01.406Z,92.96
2023-06-30T06:25:01.412Z,92.76
2023-06-30T06:26:01.388Z,94.06
2023-06-30T06:27:01.368Z,91.05
2023-06-30T06:28:01.365Z,91.65
2023-06-30T06:29:01.345Z,91.25
2023-06-30T06:30:01.348Z,91.35
2023-06-30T06:31:01.410Z,91.65
2023-06-30T06:32:01.326Z,91.25
2023-06-30T06:33:01.333Z,91.05
2023-06-30T06:34:01.321Z,90.75
2023-06-30T06:35:01.330Z,91.15
2023-06-30T06:36:01.295Z,91.96
2023-06-30T06:37:01.403Z,91.85
2023-06-30T06:38:01.260Z,90.55
2023-06-30T06:39:03.668Z,91.65
2023-06-30T06:40:01.243Z,92.76
2023-06-30T06:41:01.233Z,91.96
2023-06-30T06:42:01.219Z,91.05
2023-06-30T06:43:01.218Z,92.25
2023-06-30T06:44:01.202Z,91.20
2023-06-30T06:45:01.175Z,91.25
2023-06-30T06:46:01.198Z,92.66
2023-06-30T06:47:01.185Z,90.85
2023-06-30T06:48:01.216Z,92.66
2023-06-30T06:49:01.311Z,91.35
2023-06-30T06:50:01.143Z,90.95
2023-06-30T06:51:01.117Z,92.41
2023-06-30T06:52:01.134Z,92.01
2023-06-30T06:53:01.086Z,91.20
2023-06-30T06:54:01.129Z,90.41
2023-06-30T06:55:01.098Z,90.70
2023-06-30T06:56:01.211Z,90.61
2023-06-30T06:57:01.036Z,91.31
2023-06-30T06:58:01.051Z,92.01
2023-06-30T06:59:01.055Z,92.31
2023-06-30T07:00:02.998Z,91.31
2023-06-30T07:01:01.029Z,90.11
2023-06-30T07:02:01.047Z,90.81
2023-06-30T07:03:01.007Z,91.41
2023-06-30T07:04:01.070Z,92.21
2023-06-30T07:05:00.952Z,92.16
2023-06-30T07:06:00.964Z,90.91
2023-06-30T07:07:01.054Z,91.01
2023-06-30T07:08:00.951Z,91.36
2023-06-30T07:09:00.915Z,92.16
2023-06-30T07:10:00.927Z,90.86
2023-06-30T07:11:00.889Z,90.36
2023-06-30T07:12:00.900Z,91.16
2023-06-30T07:13:00.959Z,90.36
2023-06-30T07:14:00.879Z,89.36
2023-06-30T07:15:00.938Z,88.76
2023-06-30T07:16:00.917Z,89.16
2023-06-30T07:17:00.821Z,89.66
2023-06-30T07:18:00.916Z,89.66
2023-06-30T07:19:00.914Z,89.16
2023-06-30T07:20:00.802Z,88.96
2023-06-30T07:21:00.779Z,90.06
2023-06-30T07:22:00.775Z,89.86
2023-06-30T07:23:00.761Z,90.52
2023-06-30T07:24:00.766Z,89.42
2023-06-30T07:25:00.771Z,89.42
2023-06-30T07:26:00.745Z,89.42
2023-06-30T07:27:00.715Z,88.52
2023-06-30T07:28:00.705Z,89.12
2023-06-30T07:29:00.710Z,88.62
2023-06-30T07:30:00.754Z,88.06
2023-06-30T07:31:00.718Z,86.85
2023-06-30T07:32:00.730Z,86.66
2023-06-30T07:33:00.710Z,88.26
2023-06-30T07:34:00.657Z,87.66
2023-06-30T07:35:00.632Z,88.76
2023-06-30T07:36:00.621Z,88.56
2023-06-30T07:37:00.611Z,88.16
2023-06-30T07:38:00.624Z,88.46
2023-06-30T07:39:00.620Z,88.16
2023-06-30T07:40:15.366Z,88.56
2023-06-30T07:41:00.741Z,87.36
2023-06-30T07:42:00.587Z,86.85
2023-06-30T07:43:00.573Z,87.76
2023-06-30T07:44:00.526Z,87.55
2023-06-30T07:45:00.546Z,85.35
2023-06-30T07:46:00.572Z,86.55
2023-06-30T07:47:01.433Z,86.35
2023-06-30T07:48:00.659Z,85.25
2023-06-30T07:49:00.485Z,85.96
2023-06-30T07:50:00.458Z,86.55
2023-06-30T07:51:08.753Z,87.05
2023-06-30T07:52:00.437Z,85.25
2023-06-30T07:53:00.471Z,86.85
2023-06-30T07:54:00.456Z,86.05
2023-06-30T07:55:00.440Z,86.66
2023-06-30T07:56:00.402Z,87.86
2023-06-30T07:57:00.403Z,87.26
2023-06-30T07:58:00.372Z,86.25
2023-06-30T07:59:00.394Z,86.16
2023-06-30T08:00:00.370Z,85.96
2023-06-30T08:01:00.353Z,88.06
2023-06-30T08:02:00.339Z,86.76
2023-06-30T08:03:00.507Z,85.96
2023-06-30T08:04:00.434Z,85.15
2023-06-30T08:05:00.583Z,84.95
2023-06-30T08:06:00.898Z,84.15
2023-06-30T08:07:00.290Z,85.15
2023-06-30T08:08:00.422Z,86.35
2023-06-30T08:09:00.278Z,85.75
2023-06-30T08:10:00.303Z,85.35
2023-06-30T08:11:00.261Z,85.75
2023-06-30T08:12:00.277Z,86.46
2023-06-30T08:13:00.233Z,85.75
2023-06-30T08:14:00.198Z,85.25
2023-06-30T08:15:00.200Z,84.65
2023-06-30T08:16:00.233Z,83.95
2023-06-30T08:17:01.315Z,84.45
2023-06-30T08:19:00.327Z,84.85
2023-06-30T08:20:00.203Z,84.85
2023-06-30T08:21:00.187Z,85.05
2023-06-30T08:22:00.173Z,83.49
2023-06-30T08:23:00.129Z,83.89
2023-06-30T08:24:00.124Z,85.69
2023-06-30T08:25:00.123Z,83.09
2023-06-30T08:26:00.072Z,84.29
2023-06-30T08:27:00.073Z,82.89
2023-06-30T08:28:00.080Z,84.79
2023-06-30T08:29:00.091Z,86.30
2023-06-30T08:30:00.097Z,83.49
2023-06-30T08:31:00.194Z,83.29
2023-06-30T08:31:59.997Z,83.99
2023-06-30T08:33:00.045Z,83.79
2023-06-30T08:34:00.013Z,83.29
2023-06-30T08:35:00.019Z,84.39
2023-06-30T08:36:00.010Z,83.79
2023-06-30T08:36:59.966Z,83.39
2023-06-30T08:37:59.946Z,83.43
2023-06-30T08:38:59.965Z,83.63
2023-06-30T08:39:59.916Z,83.93
2023-06-30T08:40:59.933Z,85.03
2023-06-30T08:41:59.920Z,83.13
2023-06-30T08:42:59.901Z,84.03
2023-06-30T08:43:59.880Z,86.24
2023-06-30T08:44:59.910Z,86.54
2023-06-30T08:45:59.862Z,83.33
2023-06-30T08:46:59.939Z,83.83
2023-06-30T08:47:59.905Z,83.73
2023-06-30T08:48:59.853Z,84.53
2023-06-30T08:49:59.813Z,85.33
2023-06-30T08:50:59.814Z,86.64
2023-06-30T08:51:59.835Z,85.83
2023-06-30T08:52:59.818Z,85.03
2023-06-30T08:53:59.766Z,88.09
2023-06-30T08:54:59.796Z,86.78
2023-06-30T08:55:59.760Z,85.68
2023-06-30T08:57:00.521Z,85.17
2023-06-30T08:58:02.357Z,86.08
2023-06-30T08:58:59.771Z,84.88
2023-06-30T08:59:59.720Z,84.51
2023-06-30T09:00:59.731Z,84.31
2023-06-30T09:01:59.723Z,84.51
2023-06-30T09:02:59.800Z,88.02
2023-06-30T09:03:59.776Z,84.61
2023-06-30T09:04:59.719Z,86.82
2023-06-30T09:05:59.663Z,88.02
2023-06-30T09:07:01.516Z,85.61
2023-06-30T09:07:59.612Z,87.82
2023-06-30T09:08:59.655Z,86.82
2023-06-30T09:09:59.616Z,86.32
2023-06-30T09:10:59.598Z,87.82
2023-06-30T09:11:59.597Z,85.11
2023-06-30T09:12:59.605Z,85.72
2023-06-30T09:13:59.555Z,84.31
2023-06-30T09:14:59.635Z,86.42
2023-06-30T09:15:59.533Z,85.31
2023-06-30T09:16:59.568Z,86.82
2023-06-30T09:17:59.539Z,87.42
2023-06-30T09:18:59.544Z,84.97
2023-06-30T09:19:59.486Z,87.38
2023-06-30T09:20:59.555Z,86.88
2023-06-30T09:21:59.466Z,85.68
2023-06-30T09:22:59.470Z,85.78
2023-06-30T09:23:59.424Z,87.18
2023-06-30T09:24:59.533Z,87.78
2023-06-30T09:25:59.489Z,85.38
2023-06-30T09:26:59.480Z,85.97
2023-06-30T09:27:59.393Z,85.58
2023-06-30T09:28:59.432Z,83.33
2023-06-30T09:29:59.389Z,86.24
2023-06-30T09:30:59.410Z,88.04
2023-06-30T09:32:00.539Z,87.14
2023-06-30T09:32:59.437Z,84.43
2023-06-30T09:33:59.362Z,86.24
2023-06-30T09:34:59.366Z,86.33
2023-06-30T09:35:59.317Z,85.33
2023-06-30T09:36:59.337Z,86.33
2023-06-30T09:37:59.328Z,86.84
2023-06-30T09:38:59.297Z,86.14
2023-06-30T09:39:59.275Z,86.64
2023-06-30T09:40:59.513Z,84.23
2023-06-30T09:41:59.258Z,86.14
2023-06-30T09:42:59.267Z,84.23
2023-06-30T09:43:59.262Z,85.44
2023-06-30T09:44:59.228Z,85.44
2023-06-30T09:45:59.423Z,84.93
2023-06-30T09:46:59.222Z,83.83
2023-06-30T09:47:59.222Z,81.73
2023-06-30T09:48:59.258Z,84.63
2023-06-30T09:49:59.200Z,84.74
2023-06-30T09:50:59.254Z,84.33
2023-06-30T09:51:59.205Z,85.53
2023-06-30T09:52:59.185Z,81.82
2023-06-30T09:53:59.123Z,87.14
2023-06-30T09:54:59.141Z,82.63
2023-06-30T09:55:59.113Z,83.83
2023-06-30T09:56:59.104Z,82.53
2023-06-30T09:57:59.104Z,84.74
2023-06-30T09:58:59.082Z,86.24
2023-06-30T09:59:59.036Z,85.94
2023-06-30T10:00:59.120Z,83.73
2023-06-30T10:01:59.111Z,83.63
2023-06-30T10:02:59.127Z,80.82
2023-06-30T10:03:59.069Z,84.43
2023-06-30T10:04:59.014Z,84.63
2023-06-30T10:05:59.016Z,85.44
2023-06-30T10:06:59.147Z,82.82
2023-06-30T10:07:58.973Z,86.28
2023-06-30T10:08:58.976Z,83.57
2023-06-30T10:09:58.991Z,84.47
2023-06-30T10:10:59.020Z,84.97
2023-06-30T10:11:58.937Z,83.57
2023-06-30T10:12:58.959Z,82.67
2023-06-30T10:13:58.897Z,83.87
2023-06-30T10:14:58.904Z,82.97
2023-06-30T10:15:58.878Z,83.97
2023-06-30T10:16:58.946Z,82.67
2023-06-30T10:17:59.072Z,82.97
2023-06-30T10:18:58.866Z,85.47
2023-06-30T10:19:58.829Z,84.07
2023-06-30T10:20:58.856Z,83.47
2023-06-30T10:21:58.820Z,82.46
2023-06-30T10:22:58.840Z,83.87
2023-06-30T10:23:58.833Z,84.77
2023-06-30T10:24:58.813Z,83.01
2023-06-30T10:25:58.800Z,85.72
2023-06-30T10:26:58.783Z,85.72
2023-06-30T10:27:58.754Z,84.21
2023-06-30T10:28:58.779Z,82.20
2023-06-30T10:29:58.725Z,83.61
2023-06-30T10:30:58.737Z,83.51
2023-06-30T10:31:58.715Z,83.51
2023-06-30T10:32:58.846Z,85.52
2023-06-30T10:33:58.732Z,82.31
2023-06-30T10:34:58.703Z,82.20
2023-06-30T10:35:58.659Z,82.00
2023-06-30T10:36:58.677Z,81.84
2023-06-30T10:37:58.637Z,81.24
2023-06-30T10:38:58.659Z,80.94
2023-06-30T10:39:58.612Z,83.75
2023-06-30T10:40:58.643Z,80.43
2023-06-30T10:41:58.605Z,82.64
2023-06-30T10:42:58.601Z,81.94
2023-06-30T10:43:58.577Z,83.15
2023-06-30T10:44:58.595Z,81.14
2023-06-30T10:45:58.539Z,79.43
2023-06-30T10:46:58.598Z,80.54
2023-06-30T10:47:58.581Z,80.24
2023-06-30T10:48:58.525Z,80.94
2023-06-30T10:49:58.515Z,79.43
2023-06-30T10:50:58.504Z,82.24
2023-06-30T10:51:58.531Z,80.04
2023-06-30T10:52:58.480Z,79.33
2023-06-30T10:53:58.500Z,80.13
2023-06-30T10:54:58.490Z,81.10
2023-06-30T10:55:58.461Z,80.13
2023-06-30T10:56:58.445Z,80.54
2023-06-30T10:57:58.432Z,80.13
2023-06-30T10:58:58.455Z,81.64
2023-06-30T10:59:58.405Z,79.83
2023-06-30T11:00:58.414Z,80.74
2023-06-30T11:01:58.375Z,79.53
2023-06-30T11:02:58.743Z,80.04
2023-06-30T11:03:58.704Z,81.24
2023-06-30T11:04:58.483Z,82.28
2023-06-30T11:05:58.342Z,81.04
2023-06-30T11:06:58.393Z,80.74
2023-06-30T11:07:58.310Z,82.18
2023-06-30T11:08:58.320Z,82.08
2023-06-30T11:09:58.324Z,79.37
2023-06-30T11:10:58.314Z,79.77
2023-06-30T11:11:58.274Z,80.98
2023-06-30T11:12:58.277Z,80.57
2023-06-30T11:13:58.254Z,81.27
2023-06-30T11:14:58.255Z,81.64
2023-06-30T11:15:58.209Z,80.94
2023-06-30T11:16:58.251Z,81.14
2023-06-30T11:17:58.234Z,81.74
2023-06-30T11:18:58.350Z,78.12
2023-06-30T11:19:58.167Z,80.04
2023-06-30T11:20:58.181Z,79.03
2023-06-30T11:21:58.151Z,80.13
2023-06-30T11:22:58.197Z,79.19
2023-06-30T11:23:58.126Z,82.31
2023-06-30T11:24:58.195Z,80.90
2023-06-30T11:25:58.102Z,81.90
2023-06-30T11:26:58.110Z,78.69
2023-06-30T11:27:58.092Z,79.99
2023-06-30T11:28:58.144Z,81.50
2023-06-30T11:29:58.063Z,78.79
2023-06-30T11:30:58.098Z,79.99
2023-06-30T11:31:58.037Z,80.50
2023-06-30T11:32:58.120Z,80.90
2023-06-30T11:33:58.098Z,78.85
2023-06-30T11:34:58.070Z,79.66
2023-06-30T11:35:58.005Z,78.35
2023-06-30T11:36:58.014Z,80.16
2023-06-30T11:37:58.006Z,78.75
2023-06-30T11:38:58.011Z,78.85
2023-06-30T11:39:57.970Z,79.66
2023-06-30T11:40:57.968Z,78.02
2023-06-30T11:41:57.938Z,79.22
2023-06-30T11:42:57.971Z,78.42
2023-06-30T11:43:57.948Z,78.61
2023-06-30T11:44:57.945Z,78.11
2023-06-30T11:45:58.342Z,77.81
2023-06-30T11:46:58.896Z,77.91
2023-06-30T11:47:57.951Z,77.31
2023-06-30T11:48:57.872Z,77.21
2023-06-30T11:49:57.861Z,76.41
2023-06-30T11:50:57.905Z,75.81
2023-06-30T11:51:58.155Z,77.21
2023-06-30T11:52:57.821Z,76.57
2023-06-30T11:53:57.829Z,77.48
2023-06-30T11:54:57.825Z,78.78
2023-06-30T11:55:57.805Z,78.28
2023-06-30T11:56:57.778Z,76.87
2023-06-30T11:57:57.786Z,75.37
2023-06-30T11:58:57.780Z,80.98
2023-06-30T11:59:57.776Z,78.18
2023-06-30T12:00:57.740Z,76.98
2023-06-30T12:01:57.768Z,76.98
2023-06-30T12:02:57.974Z,77.14
2023-06-30T12:03:57.888Z,80.74
2023-06-30T12:04:57.750Z,77.14
2023-06-30T12:05:57.749Z,79.64
2023-06-30T12:06:57.694Z,77.24
2023-06-30T12:07:58.055Z,76.84
2023-06-30T12:08:57.679Z,76.47
2023-06-30T12:09:57.644Z,77.48
2023-06-30T12:10:57.638Z,75.17
2023-06-30T12:11:57.640Z,78.48
2023-06-30T12:12:57.608Z,79.28
2023-06-30T12:13:57.612Z,78.08
2023-06-30T12:14:57.618Z,75.77
2023-06-30T12:15:57.702Z,75.07
2023-06-30T12:16:57.578Z,75.27
2023-06-30T12:17:57.634Z,75.54
2023-06-30T12:18:57.537Z,74.73
2023-06-30T12:19:57.566Z,78.64
2023-06-30T12:20:57.537Z,76.64
2023-06-30T12:21:57.517Z,76.74
2023-06-30T12:22:57.496Z,75.04
2023-06-30T12:23:57.509Z,76.84
2023-06-30T12:24:57.491Z,75.43
2023-06-30T12:25:57.509Z,74.23
2023-06-30T12:26:57.458Z,74.73
2023-06-30T12:27:57.464Z,75.74
2023-06-30T12:28:57.431Z,74.23
2023-06-30T12:29:57.463Z,78.04
2023-06-30T12:30:57.469Z,71.93
2023-06-30T12:31:57.511Z,74.03
2023-06-30T12:32:57.423Z,76.74
2023-06-30T12:33:57.413Z,76.64
2023-06-30T12:34:57.385Z,75.30
2023-06-30T12:35:57.362Z,74.00
2023-06-30T12:36:57.370Z,73.60
2023-06-30T12:37:57.454Z,74.50
2023-06-30T12:38:57.360Z,73.80
2023-06-30T12:39:57.318Z,76.40
2023-06-30T12:40:57.297Z,75.20
2023-06-30T12:41:57.373Z,73.50
2023-06-30T12:42:57.276Z,75.50
2023-06-30T12:43:57.528Z,72.89
2023-06-30T12:44:57.260Z,74.60
2023-06-30T12:45:57.293Z,73.56
2023-06-30T12:46:57.245Z,72.36
2023-06-30T12:47:57.425Z,75.26
2023-06-30T12:48:57.250Z,74.46
2023-06-30T12:49:57.223Z,74.22
2023-06-30T12:50:57.211Z,74.13
2023-06-30T12:51:57.223Z,73.93
2023-06-30T12:52:57.173Z,73.83
2023-06-30T12:53:57.252Z,72.13
2023-06-30T12:54:57.144Z,71.69
2023-06-30T12:55:57.146Z,72.99
2023-06-30T12:56:57.131Z,73.69
2023-06-30T12:57:57.125Z,70.23
2023-06-30T12:58:57.114Z,71.79
2023-06-30T12:59:57.172Z,74.49
2023-06-30T13:00:57.084Z,72.59
2023-06-30T13:01:57.214Z,71.69
2023-06-30T13:02:57.173Z,74.99
2023-06-30T13:03:57.262Z,71.09
2023-06-30T13:04:57.040Z,70.29
2023-06-30T13:05:57.091Z,72.49
2023-06-30T13:06:57.105Z,72.19
2023-06-30T13:07:57.014Z,71.29
2023-06-30T13:08:56.986Z,71.19
2023-06-30T13:09:57.000Z,71.09
2023-06-30T13:10:56.990Z,72.79
2023-06-30T13:11:57.007Z,70.29
2023-06-30T13:12:59.563Z,72.16
2023-06-30T13:13:56.942Z,74.29
2023-06-30T13:14:56.926Z,73.56
2023-06-30T13:15:56.956Z,71.89
2023-06-30T13:16:56.941Z,70.39
2023-06-30T13:17:56.963Z,69.99
2023-06-30T13:18:56.884Z,73.56
2023-06-30T13:19:56.884Z,69.09
2023-06-30T13:20:56.869Z,71.56
2023-06-30T13:21:56.888Z,71.56
2023-06-30T13:23:12.315Z,73.75
2023-06-30T13:23:56.869Z,71.36
2023-06-30T13:24:56.820Z,70.83
2023-06-30T13:25:56.835Z,72.82
2023-06-30T13:26:56.799Z,70.32
2023-06-30T13:27:56.796Z,70.53
2023-06-30T13:28:56.788Z,70.39
2023-06-30T13:29:56.813Z,68.70
2023-06-30T13:30:56.754Z,71.29
2023-06-30T13:31:56.791Z,66.20
2023-06-30T13:32:56.785Z,69.89
2023-06-30T13:33:56.829Z,69.16
2023-06-30T13:34:56.707Z,67.46
2023-06-30T13:35:56.750Z,71.36
2023-06-30T13:36:56.697Z,68.26
2023-06-30T13:37:56.711Z,69.36
2023-06-30T13:38:56.669Z,69.06
2023-06-30T13:39:56.661Z,68.46
2023-06-30T13:40:56.657Z,68.46
2023-06-30T13:41:56.709Z,70.06
2023-06-30T13:42:56.619Z,68.16
2023-06-30T13:43:56.632Z,64.37
2023-06-30T13:44:56.601Z,69.46
2023-06-30T13:45:56.623Z,71.36
2023-06-30T13:46:56.623Z,65.77
2023-06-30T13:47:56.619Z,66.27
2023-06-30T13:48:56.579Z,65.07
2023-06-30T13:49:56.612Z,67.83
2023-06-30T13:50:56.529Z,71.82
2023-06-30T13:51:56.531Z,64.90
2023-06-30T13:52:56.534Z,68.40
2023-06-30T13:53:56.516Z,63.71
2023-06-30T13:54:56.511Z,65.20
2023-06-30T13:55:56.512Z,69.06
2023-06-30T13:56:56.492Z,69.96
2023-06-30T13:57:56.470Z,66.17
2023-06-30T13:58:56.443Z,68.07
2023-06-30T13:59:56.449Z,70.22
2023-06-30T14:00:56.530Z,71.02
2023-06-30T14:01:56.433Z,71.72
2023-06-30T14:02:56.498Z,72.22
2023-06-30T14:03:56.597Z,70.52
2023-06-30T14:04:58.366Z,67.47
2023-06-30T14:05:56.476Z,72.35
2023-06-30T14:06:56.434Z,68.56
2023-06-30T14:07:56.429Z,68.96
2023-06-30T14:08:56.344Z,70.65
2023-06-30T14:09:56.384Z,68.86
2023-06-30T14:10:57.493Z,66.37
2023-06-30T14:11:56.325Z,70.26
2023-06-30T14:12:56.311Z,68.37
2023-06-30T14:13:56.344Z,67.47
2023-06-30T14:14:56.280Z,66.67
2023-06-30T14:15:56.323Z,70.36
2023-06-30T14:16:56.345Z,64.37
2023-06-30T14:17:56.374Z,69.06
2023-06-30T14:18:56.283Z,68.66
2023-06-30T14:19:56.243Z,69.06
2023-06-30T14:20:56.208Z,68.86
2023-06-30T14:21:56.235Z,68.16
2023-06-30T14:22:56.205Z,66.87
2023-06-30T14:23:56.195Z,65.47
2023-06-30T14:24:56.224Z,67.83
2023-06-30T14:25:56.179Z,67.63
2023-06-30T14:26:56.144Z,69.76
2023-06-30T14:27:56.163Z,72.15
2023-06-30T14:28:56.121Z,64.67
2023-06-30T14:29:56.200Z,68.37
2023-06-30T14:30:56.215Z,69.96
2023-06-30T14:31:56.119Z,69.76
2023-06-30T14:32:56.133Z,69.89
2023-06-30T14:33:56.090Z,70.75
2023-06-30T14:34:56.086Z,69.59
2023-06-30T14:35:56.060Z,72.98
2023-06-30T14:36:56.054Z,69.09
2023-06-30T14:37:56.041Z,70.29
2023-06-30T14:38:56.070Z,64.71
2023-06-30T14:39:56.032Z,62.71
2023-06-30T14:40:55.990Z,62.81
2023-06-30T14:42:02.205Z,64.28
2023-06-30T14:42:55.971Z,64.75
2023-06-30T14:43:56.004Z,69.23
2023-06-30T14:44:56.682Z,69.73
2023-06-30T14:45:55.967Z,69.66
2023-06-30T14:46:56.101Z,68.04
2023-06-30T14:47:55.989Z,69.59
2023-06-30T14:48:55.898Z,71.45
2023-06-30T14:49:58.128Z,67.87
2023-06-30T14:50:55.945Z,62.37
2023-06-30T14:51:55.954Z,68.13
2023-06-30T14:52:55.863Z,68.73
2023-06-30T14:53:55.860Z,64.36
2023-06-30T14:54:55.856Z,63.64
2023-06-30T14:55:55.895Z,62.64
2023-06-30T14:56:55.859Z,59.76
2023-06-30T14:57:55.832Z,63.96
2023-06-30T14:58:55.810Z,67.83
2023-06-30T14:59:55.796Z,66.15
2023-06-30T15:00:55.786Z,63.60
2023-06-30T15:01:55.844Z,67.97
2023-06-30T15:02:55.868Z,66.18
2023-06-30T15:03:55.808Z,68.27
2023-06-30T15:04:55.793Z,67.97
2023-06-30T15:05:55.728Z,67.97
2023-06-30T15:06:55.722Z,69.46
2023-06-30T15:07:55.726Z,65.48
2023-06-30T15:08:55.734Z,67.80
2023-06-30T15:09:55.690Z,67.90
2023-06-30T15:10:55.672Z,63.92
2023-06-30T15:11:55.670Z,64.22
2023-06-30T15:12:55.656Z,64.49
2023-06-30T15:13:55.684Z,64.32
2023-06-30T15:14:55.661Z,64.03
2023-06-30T15:15:55.625Z,64.32
2023-06-30T15:16:55.619Z,66.74
2023-06-30T15:17:55.629Z,65.45
2023-06-30T15:18:55.585Z,67.07
2023-06-30T15:19:55.623Z,64.98
2023-06-30T15:20:55.585Z,64.48
2023-06-30T15:21:55.613Z,65.91
2023-06-30T15:22:55.542Z,65.54
2023-06-30T15:23:55.545Z,67.43
2023-06-30T15:24:55.586Z,64.64
2023-06-30T15:25:55.561Z,67.03
2023-06-30T15:26:55.489Z,64.28
2023-06-30T15:27:55.519Z,62.68
2023-06-30T15:28:55.482Z,64.64
2023-06-30T15:29:55.484Z,64.15
2023-06-30T15:30:55.461Z,68.93
2023-06-30T15:31:55.593Z,63.45
2023-06-30T15:32:56.234Z,66.04
2023-06-30T15:33:55.497Z,66.64
2023-06-30T15:34:55.421Z,65.54
2023-06-30T15:35:55.433Z,63.25
2023-06-30T15:36:55.420Z,59.96
2023-06-30T15:37:55.456Z,60.36
2023-06-30T15:38:55.379Z,63.22
2023-06-30T15:39:55.366Z,60.83
2023-06-30T15:40:59.688Z,59.74
2023-06-30T15:41:55.348Z,62.02
2023-06-30T15:42:55.326Z,65.41
2023-06-30T15:43:55.348Z,64.31
2023-06-30T15:44:55.330Z,60.33
2023-06-30T15:45:55.367Z,61.23
2023-06-30T15:46:55.305Z,64.42
2023-06-30T15:47:55.341Z,62.23
2023-06-30T15:48:55.262Z,69.79
2023-06-30T15:49:55.309Z,65.51
2023-06-30T15:50:55.231Z,65.61
2023-06-30T15:51:55.275Z,63.52
2023-06-30T15:52:55.936Z,64.12
2023-06-30T15:53:55.254Z,61.93
2023-06-30T15:54:55.236Z,65.81
2023-06-30T15:55:55.226Z,63.32
2023-06-30T15:56:55.222Z,60.93
2023-06-30T15:57:55.174Z,59.74
2023-06-30T15:58:55.172Z,62.32
2023-06-30T15:59:55.174Z,61.50
2023-06-30T16:00:55.183Z,59.31
2023-06-30T16:01:55.133Z,61.99
2023-06-30T16:02:55.201Z,62.69
2023-06-30T16:03:55.370Z,64.09
2023-06-30T16:04:55.216Z,60.30
2023-06-30T16:05:55.216Z,65.68
2023-06-30T16:06:56.927Z,60.11
2023-06-30T16:07:55.084Z,60.33
2023-06-30T16:08:55.120Z,66.97
2023-06-30T16:09:55.059Z,65.48
2023-06-30T16:10:55.040Z,65.78
2023-06-30T16:11:55.019Z,64.61
2023-06-30T16:12:55.093Z,62.42
2023-06-30T16:13:55.004Z,64.61
2023-06-30T16:14:55.005Z,60.83
2023-06-30T16:15:54.996Z,62.13
2023-06-30T16:16:55.004Z,55.93
2023-06-30T16:17:55.010Z,63.49
2023-06-30T16:18:54.965Z,58.01
2023-06-30T16:19:54.969Z,61.60
2023-06-30T16:20:54.930Z,62.29
2023-06-30T16:21:54.951Z,59.31
2023-06-30T16:22:54.915Z,60.97
2023-06-30T16:23:54.896Z,61.47
2023-06-30T16:24:54.897Z,62.66
2023-06-30T16:25:54.876Z,63.46
2023-06-30T16:26:54.878Z,64.62
2023-06-30T16:27:54.882Z,62.53
2023-06-30T16:28:54.853Z,63.63
2023-06-30T16:29:54.865Z,62.23
2023-06-30T16:30:54.834Z,65.02
2023-06-30T16:31:54.829Z,66.11
2023-06-30T16:32:54.966Z,65.81
2023-06-30T16:33:54.880Z,63.43
2023-06-30T16:34:54.881Z,65.61
2023-06-30T16:35:54.752Z,61.44
2023-06-30T16:36:54.756Z,60.71
2023-06-30T16:37:54.824Z,64.19
2023-06-30T16:38:54.744Z,67.37
2023-06-30T16:39:54.728Z,62.30
2023-06-30T16:40:54.736Z,69.16
2023-06-30T16:41:54.696Z,66.08
2023-06-30T16:42:54.752Z,58.45
2023-06-30T16:43:54.680Z,57.06
2023-06-30T16:44:54.666Z,53.58
2023-06-30T16:45:54.707Z,56.59
2023-06-30T16:46:54.663Z,52.54
2023-06-30T16:47:54.671Z,54.24
2023-06-30T16:48:54.645Z,55.53
2023-06-30T16:49:54.606Z,56.23
2023-06-30T16:50:54.631Z,53.36
2023-06-30T16:51:54.625Z,52.57
2023-06-30T16:52:54.628Z,57.05
2023-06-30T16:53:54.575Z,62.52
2023-06-30T16:54:54.586Z,58.17
2023-06-30T16:55:54.535Z,61.46
2023-06-30T16:56:54.554Z,55.98
2023-06-30T16:57:54.529Z,56.40
2023-06-30T16:58:54.519Z,54.11
2023-06-30T16:59:54.502Z,55.41
2023-06-30T17:00:54.536Z,53.52
2023-06-30T17:01:56.429Z,58.40
2023-06-30T17:02:54.572Z,57.20
2023-06-30T17:03:54.446Z,54.83
2023-06-30T17:04:54.527Z,57.03
2023-06-30T17:05:54.462Z,54.94
2023-06-30T17:06:54.447Z,56.53
2023-06-30T17:07:54.421Z,57.46
2023-06-30T17:08:54.714Z,59.65
2023-06-30T17:09:54.392Z,53.56
2023-06-30T17:10:54.409Z,51.07
2023-06-30T17:11:54.379Z,52.17
2023-06-30T17:12:54.369Z,54.44
2023-06-30T17:13:54.346Z,54.14
2023-06-30T17:14:54.390Z,55.33
2023-06-30T17:15:54.334Z,58.83
2023-06-30T17:16:54.365Z,54.74
2023-06-30T17:17:54.350Z,51.35
2023-06-30T17:18:54.371Z,58.65
2023-06-30T17:19:54.333Z,55.76
2023-06-30T17:20:54.317Z,54.46
2023-06-30T17:21:54.262Z,51.77
2023-06-30T17:22:54.265Z,52.57
2023-06-30T17:23:54.231Z,55.56